Los Lunas ASC Data

Date Time Air Temperature Relative Humidity Dewpoint Windchill Heat Index Wind Speed Wind Dir. Rain Solar Radiation Soil Temperature
2m 2m 3m 3m 10cm
US/Mountain F % F F F MPH deg in MJ/m^2 F
max avg avg
2021-04-08 00:05:00 44.0 20.5 6.0 44.0 44.0 1.3 2.6 1.6 267.5 233.9 0.00 0.0000000 64.0
2021-04-08 00:10:00 43.6 25.2 10.2 43.6 43.6 2.6 2.8 1.5 30.7 42.3 0.00 0.0000000 63.9
2021-04-08 00:15:00 42.1 27.1 10.5 42.1 42.1 0.0 3.1 1.3 49.9 52.0 0.00 0.0000000 63.8
2021-04-08 00:20:00 41.9 24.3 8.0 41.9 41.9 1.9 3.0 1.6 229.4 211.4 0.00 0.0000000 63.7
2021-04-08 00:25:00 42.1 23.3 7.2 42.1 42.1 1.0 2.2 1.6 325.1 235.4 0.00 0.0000000 63.5
2021-04-08 00:30:00 42.0 22.5 6.3 42.0 42.0 0.0 0.8 0.0 18.7 18.7 0.00 0.0000000 63.4
2021-04-08 00:35:00 41.2 27.2 9.8 41.2 41.2 1.9 2.1 1.2 35.8 53.2 0.00 0.0000000 63.3
2021-04-08 00:40:00 40.9 25.5 8.1 40.9 40.9 2.1 2.1 1.3 40.1 25.1 0.00 0.0000000 63.2
2021-04-08 00:45:00 40.7 24.9 7.5 40.7 40.7 0.0 2.1 0.7 344.1 29.7 0.00 0.0000000 63.1
2021-04-08 00:50:00 40.5 24.5 7.0 40.5 40.5 1.0 1.2 0.1 19.7 34.4 0.00 0.0000000 63.0
2021-04-08 00:55:00 40.2 24.1 6.4 40.2 40.2 1.5 2.6 1.1 249.6 241.5 0.00 0.0000000 62.9
2021-04-08 01:00:00 40.0 24.6 6.6 40.0 40.0 0.0 1.3 0.2 1.6 252.4 0.00 0.0000000 62.7
2021-04-08 01:05:00 39.9 25.1 7.0 39.9 39.9 0.0 0.0 0.0 5.8 0.0 0.00 0.0000000 62.7
2021-04-08 01:10:00 39.9 24.3 6.3 39.9 39.9 1.0 2.4 1.3 331.3 352.9 0.00 0.0000000 62.6
2021-04-08 01:15:00 39.9 25.8 7.6 39.9 39.9 0.0 1.0 0.1 63.4 344.5 0.00 0.0000000 62.5
2021-04-08 01:20:00 39.3 26.6 7.7 39.3 39.3 0.0 0.8 0.0 211.6 234.1 0.00 0.0000000 62.4
2021-04-08 01:25:00 39.1 26.5 7.5 39.1 39.1 0.0 0.0 0.0 24.2 0.0 0.00 0.0000000 62.3
2021-04-08 01:30:00 38.9 27.5 8.1 38.9 38.9 0.0 0.0 0.0 50.6 0.0 0.00 0.0000000 62.2
2021-04-08 01:35:00 38.4 29.1 8.9 38.4 38.4 0.0 0.0 0.0 32.3 0.0 0.00 0.0000000 62.0
2021-04-08 01:40:00 37.9 34.6 12.4 37.9 37.9 2.4 2.6 1.0 52.1 58.6 0.00 0.0000000 61.9
2021-04-08 01:45:00 37.4 27.2 6.6 37.4 37.4 1.2 2.8 2.0 103.5 56.2 0.00 0.0000000 61.8
2021-04-08 01:50:00 37.9 28.2 7.8 37.9 37.9 1.5 1.7 0.8 217.3 206.3 0.00 0.0000000 61.7
2021-04-08 01:55:00 38.4 28.3 8.3 38.4 38.4 0.0 1.7 1.2 256.4 213.5 0.00 0.0000000 61.6
2021-04-08 02:00:00 38.4 28.0 8.1 38.4 38.4 0.0 0.0 0.0 232.8 0.0 0.00 0.0000000 61.5
2021-04-08 02:05:00 38.1 27.4 7.3 38.1 38.1 0.0 0.0 0.0 233.0 0.0 0.00 0.0000000 61.4
2021-04-08 02:10:00 38.2 27.3 7.4 38.2 38.2 1.0 1.7 0.5 233.3 255.6 0.00 0.0000000 61.3
2021-04-08 02:15:00 38.4 27.0 7.3 38.4 38.4 0.0 0.8 0.2 273.8 302.5 0.00 0.0000000 61.3
2021-04-08 02:20:00 38.5 26.8 7.2 38.5 38.5 0.0 1.0 0.2 260.9 252.1 0.00 0.0000000 61.1
2021-04-08 02:25:00 38.6 26.6 7.1 38.6 38.6 0.0 1.3 0.7 232.3 238.5 0.00 0.0000000 61.1
2021-04-08 02:30:00 38.7 27.3 7.8 38.7 38.7 1.2 1.2 0.9 227.0 226.6 0.00 0.0000000 61.0
2021-04-08 02:35:00 38.7 27.3 7.9 38.7 38.7 1.9 1.9 1.3 231.9 230.3 0.00 0.0000000 60.9
2021-04-08 02:40:00 38.7 27.1 7.6 38.7 38.7 1.3 1.9 1.5 233.8 238.0 0.00 0.0000000 60.8
2021-04-08 02:45:00 38.4 27.5 7.7 38.4 38.4 0.0 1.5 0.8 219.7 234.4 0.00 0.0000000 60.7
2021-04-08 02:50:00 38.2 27.6 7.6 38.2 38.2 1.2 1.3 0.2 156.4 161.1 0.00 0.0000000 60.6
2021-04-08 02:55:00 37.6 27.6 7.1 37.6 37.6 1.0 1.0 0.4 234.8 189.7 0.00 0.0000000 60.5
2021-04-08 03:00:00 37.5 29.1 8.1 37.5 37.5 0.0 0.8 0.0 125.4 254.8 0.00 0.0000000 60.4
2021-04-08 03:05:00 37.1 30.6 9.0 37.1 37.1 0.0 1.0 0.1 138.3 35.0 0.00 0.0000000 60.3
2021-04-08 03:10:00 37.1 29.6 8.2 37.1 37.1 0.0 0.8 0.0 183.6 193.8 0.00 0.0000000 60.2
2021-04-08 03:15:00 37.1 29.3 7.9 37.1 37.1 1.9 2.8 1.2 222.9 220.4 0.00 0.0000000 60.1
2021-04-08 03:20:00 37.5 28.7 7.9 37.5 37.5 0.0 1.7 0.8 239.1 238.1 0.00 0.0000000 60.0
2021-04-08 03:25:00 37.2 32.8 10.6 37.2 37.2 2.1 2.1 0.5 58.1 42.0 0.00 0.0000000 60.0
2021-04-08 03:30:00 36.5 32.5 9.8 36.5 36.5 1.0 2.1 0.4 69.7 83.3 0.00 0.0000000 59.8
2021-04-08 03:35:00 36.7 31.5 9.2 36.7 36.7 0.0 1.7 0.5 63.6 61.4 0.00 0.0000000 59.8
2021-04-08 03:40:00 36.7 30.8 8.7 36.7 36.7 0.0 0.8 0.1 20.9 228.1 0.00 0.0000000 59.7
2021-04-08 03:45:00 36.6 31.7 9.2 36.6 36.6 1.3 1.3 0.1 2.1 348.8 0.00 0.0000000 59.6
2021-04-08 03:50:00 37.0 30.2 8.5 37.0 37.0 2.4 2.4 1.1 17.6 340.7 0.00 0.0000000 59.5
2021-04-08 03:55:00 36.3 36.4 12.1 36.3 36.3 2.8 2.8 2.0 40.6 38.7 0.00 0.0000000 59.5
2021-04-08 04:00:00 35.6 31.3 8.1 35.6 35.6 0.0 2.8 1.6 46.1 41.5 0.00 0.0000000 59.4
2021-04-08 04:05:00 36.1 31.0 8.3 36.1 36.1 0.0 2.1 1.1 158.5 27.5 0.00 0.0000000 59.3
2021-04-08 04:10:00 36.2 30.7 8.2 36.2 36.2 2.8 2.8 1.3 39.9 48.5 0.00 0.0000000 59.2
2021-04-08 04:15:00 35.7 33.2 9.6 35.7 35.7 0.0 3.0 1.4 279.9 16.7 0.00 0.0000000 59.2
2021-04-08 04:20:00 35.9 32.6 9.3 35.9 35.9 0.0 1.2 0.3 214.8 210.7 0.00 0.0000000 59.1
2021-04-08 04:25:00 36.5 31.5 9.1 36.5 36.5 0.8 1.0 0.2 272.0 275.3 0.00 0.0000000 59.0
2021-04-08 04:30:00 36.8 31.0 8.9 36.8 36.8 1.0 1.5 0.9 288.3 269.7 0.00 0.0000000 58.9
2021-04-08 04:35:00 36.7 30.8 8.7 36.7 36.7 1.2 1.7 1.1 245.4 249.4 0.00 0.0000000 58.9
2021-04-08 04:40:00 36.8 31.2 9.1 36.8 36.8 0.0 1.5 0.6 272.7 247.8 0.00 0.0000000 58.8
2021-04-08 04:45:00 36.7 31.6 9.3 36.7 36.7 1.0 2.2 1.4 328.7 287.6 0.00 0.0000000 58.7
2021-04-08 04:50:00 36.9 32.3 10.0 36.9 36.9 1.5 1.7 0.8 273.0 268.1 0.00 0.0000000 58.7
2021-04-08 04:55:00 37.0 32.1 9.9 37.0 37.0 2.2 2.6 2.0 241.5 230.4 0.00 0.0000000 58.6
2021-04-08 05:00:00 37.0 31.8 9.8 37.0 37.0 1.0 2.4 1.5 244.4 233.6 0.00 0.0000000 58.5
2021-04-08 05:05:00 36.8 32.4 9.9 36.8 36.8 1.9 2.2 0.7 220.5 230.0 0.00 0.0000000 58.4
2021-04-08 05:10:00 36.8 30.8 8.9 34.2 36.8 3.5 4.6 2.3 229.0 239.8 0.00 0.0000000 58.4
2021-04-08 05:15:00 37.2 31.9 9.9 37.2 37.2 1.9 3.1 1.3 250.8 232.4 0.00 0.0000000 58.3
2021-04-08 05:20:00 37.0 28.0 6.9 33.8 37.0 4.0 4.0 2.2 217.4 218.9 0.00 0.0000000 58.2
2021-04-08 05:25:00 37.4 30.0 8.8 37.4 37.4 2.2 3.8 2.2 299.2 202.6 0.00 0.0000000 58.2
2021-04-08 05:30:00 37.0 27.6 6.6 37.0 37.0 2.4 3.5 2.5 240.6 281.6 0.00 0.0000000 58.1
2021-04-08 05:35:00 36.6 30.1 8.1 36.6 36.6 2.2 3.5 2.7 233.5 218.9 0.00 0.0000000 58.0
2021-04-08 05:40:00 36.8 27.3 6.2 36.8 36.8 0.0 3.3 1.9 253.0 249.8 0.00 0.0000000 58.0
2021-04-08 05:45:00 36.6 28.5 6.9 36.6 36.6 2.8 3.0 1.2 216.3 233.5 0.00 0.0000000 57.9
2021-04-08 05:50:00 36.4 29.5 7.5 36.4 36.4 1.2 2.8 1.9 267.0 223.9 0.00 0.0000000 57.8
2021-04-08 05:55:00 36.2 28.5 6.5 36.2 36.2 2.1 2.4 0.9 191.1 235.2 0.00 0.0000000 57.8
2021-04-08 06:00:00 36.2 28.8 6.7 36.2 36.2 1.7 2.2 1.8 211.7 205.7 0.00 0.0000000 57.7
2021-04-08 06:05:00 36.0 28.2 6.2 36.0 36.0 1.3 1.7 0.9 155.2 241.2 0.00 0.0000000 57.6
2021-04-08 06:10:00 34.2 41.7 13.3 34.2 34.2 1.7 1.9 1.4 65.4 82.3 0.00 0.0000000 57.5
2021-04-08 06:15:00 33.2 36.8 9.5 33.2 33.2 0.0 1.9 1.4 184.0 157.5 0.00 0.0000000 57.5
2021-04-08 06:20:00 33.0 37.4 9.8 33.0 33.0 1.9 5.5 2.8 41.4 93.4 0.00 0.0000000 57.4
2021-04-08 06:25:00 33.4 37.2 10.0 33.4 33.4 0.0 2.2 1.6 78.7 29.6 0.00 0.0000000 57.3
2021-04-08 06:30:00 33.2 40.8 12.0 33.2 33.2 0.0 2.4 1.1 165.6 97.6 0.00 0.0000000 57.2
2021-04-08 06:35:00 33.3 42.3 12.8 33.3 33.3 0.0 0.0 0.0 54.8 0.0 0.00 0.0010000 57.1
2021-04-08 06:40:00 33.2 41.9 12.5 33.2 33.2 0.0 0.0 0.0 191.5 0.0 0.00 0.0030000 57.1
2021-04-08 06:45:00 33.8 40.8 12.5 33.8 33.8 1.2 1.9 1.3 199.2 206.8 0.00 0.0040000 57.0
2021-04-08 06:50:00 34.0 40.0 12.2 34.0 34.0 0.0 1.9 1.0 277.5 226.6 0.00 0.0070000 56.9
2021-04-08 06:55:00 34.0 38.7 11.5 34.0 34.0 1.7 2.6 1.6 0.1 12.6 0.00 0.0090000 56.8
2021-04-08 07:00:00 33.4 40.2 11.8 33.4 33.4 1.5 2.6 1.7 28.3 30.8 0.00 0.0130000 56.8
2021-04-08 07:05:00 33.5 40.4 12.0 33.5 33.5 2.2 2.8 1.6 10.5 11.9 0.00 0.0150000 56.7
2021-04-08 07:10:00 34.4 40.4 12.7 34.4 34.4 1.9 3.3 2.4 47.3 16.4 0.00 0.0170000 56.6
2021-04-08 07:15:00 34.8 38.3 11.9 34.8 34.8 0.0 1.3 0.4 254.1 324.7 0.00 0.0200000 56.6
2021-04-08 07:20:00 35.0 37.4 11.6 35.0 35.0 1.2 1.3 0.6 226.1 258.2 0.00 0.0220000 56.5
2021-04-08 07:25:00 35.7 37.3 12.1 35.7 35.7 1.3 2.4 1.7 258.0 234.0 0.00 0.0240000 56.4
2021-04-08 07:30:00 36.1 37.2 12.4 36.1 36.1 1.7 2.1 1.5 309.8 229.7 0.00 0.0280000 56.3
2021-04-08 07:35:00 37.1 35.5 12.2 37.1 37.1 1.7 1.7 1.0 288.7 249.1 0.00 0.0270000 56.3
2021-04-08 07:40:00 37.9 32.3 10.9 37.9 37.9 2.2 3.3 2.0 213.3 259.7 0.00 0.0280000 56.2
2021-04-08 07:45:00 39.1 32.2 11.8 39.1 39.1 1.2 2.6 1.9 212.7 244.2 0.00 0.0390000 56.2
2021-04-08 07:50:00 40.5 27.8 9.8 40.5 40.5 2.2 2.8 2.1 287.3 253.0 0.00 0.0630000 56.1
2021-04-08 07:55:00 41.4 25.9 9.0 41.4 41.4 0.0 2.8 1.0 203.7 260.8 0.00 0.1080000 56.0
2021-04-08 08:00:00 42.6 25.0 9.2 42.6 42.6 1.9 2.1 1.0 331.0 35.2 0.00 0.1310000 56.0
2021-04-08 08:05:00 43.1 22.2 7.0 43.1 43.1 1.7 1.9 0.9 209.2 39.2 0.00 0.1560000 55.9
2021-04-08 08:10:00 44.3 21.1 6.9 42.7 44.3 3.5 3.5 2.5 229.2 224.8 0.00 0.2360000 55.9
2021-04-08 08:15:00 45.5 20.2 6.9 44.4 45.5 3.1 3.8 2.3 225.8 223.3 0.00 0.2560000 55.8
2021-04-08 08:20:00 46.7 18.5 5.9 44.6 46.7 4.6 5.1 3.0 242.3 230.7 0.00 0.2730000 55.8
2021-04-08 08:25:00 48.0 17.5 5.8 48.0 48.0 2.8 3.8 2.2 48.7 294.9 0.00 0.2900000 55.7
2021-04-08 08:30:00 47.9 24.4 13.1 47.1 47.9 3.1 6.7 4.1 49.4 54.4 0.00 0.3070000 55.7
2021-04-08 08:35:00 47.4 22.4 10.7 46.5 47.4 3.1 4.2 2.2 49.1 52.3 0.00 0.3240000 55.7
2021-04-08 08:40:00 48.3 19.7 8.6 48.3 48.3 0.0 4.0 2.0 74.0 61.6 0.00 0.3400000 55.6
2021-04-08 08:45:00 49.7 19.6 9.7 49.7 49.7 3.0 3.0 1.5 46.0 53.4 0.00 0.3580000 55.6
2021-04-08 08:50:00 49.7 20.8 11.1 49.7 49.7 2.2 5.5 3.7 75.4 52.3 0.00 0.3750000 55.6
2021-04-08 08:55:00 50.6 17.8 8.4 50.6 50.6 2.4 3.3 2.3 33.4 42.7 0.00 0.3920000 55.5
2021-04-08 09:00:00 51.7 16.9 8.1 51.7 51.7 1.5 3.3 2.1 17.7 45.9 0.00 0.4080000 55.5
2021-04-08 09:05:00 52.9 15.6 7.4 52.9 52.9 0.8 3.3 2.0 305.4 43.1 0.00 0.4250000 55.5
2021-04-08 09:10:00 55.3 14.6 7.8 55.3 55.3 0.0 0.8 0.0 86.3 278.4 0.00 0.4420000 55.5
2021-04-08 09:15:00 55.0 14.3 7.1 55.0 55.0 0.8 3.7 1.9 197.5 210.5 0.00 0.4570000 55.5
2021-04-08 09:20:00 54.8 14.5 7.3 54.8 54.8 3.3 4.4 2.7 235.1 224.0 0.00 0.4730000 55.5
2021-04-08 09:25:00 55.3 15.1 8.4 55.3 55.3 4.0 4.0 2.5 204.2 237.7 0.00 0.4890000 55.5
2021-04-08 09:30:00 55.6 14.8 8.3 55.6 55.6 3.3 5.1 3.7 213.9 212.9 0.00 0.5030000 55.5
2021-04-08 09:35:00 56.2 14.5 8.3 56.2 56.2 3.3 4.9 3.4 223.6 211.9 0.00 0.5200000 55.6
2021-04-08 09:40:00 57.0 14.3 8.7 57.0 57.0 3.1 5.5 3.8 155.9 201.1 0.00 0.5350000 55.6
2021-04-08 09:45:00 58.8 12.8 7.8 58.8 58.8 3.3 4.7 3.0 235.8 202.9 0.00 0.5490000 55.7
2021-04-08 09:50:00 59.3 12.5 7.5 59.3 59.3 2.8 4.7 3.0 233.1 213.8 0.00 0.5640000 55.8
2021-04-08 09:55:00 60.6 12.3 8.3 60.6 60.6 2.8 4.2 3.1 236.5 214.4 0.00 0.5770000 55.9
2021-04-08 10:00:00 62.6 11.8 8.7 62.6 62.6 1.2 2.4 1.5 284.4 164.6 0.00 0.5940000 56.1
2021-04-08 10:05:00 62.4 12.9 10.6 62.4 62.4 2.8 5.6 3.1 302.5 235.3 0.00 0.5870000 56.2
2021-04-08 10:10:00 62.8 10.7 6.8 62.8 62.8 3.1 4.7 3.0 195.5 205.7 0.00 0.6180000 56.4
2021-04-08 10:15:00 64.0 11.4 9.2 64.0 64.0 5.1 5.1 2.6 230.3 171.4 0.00 0.6290000 56.6
2021-04-08 10:20:00 64.0 11.4 9.2 64.0 64.0 1.7 5.1 3.6 146.2 211.0 0.00 0.6490000 56.8
2021-04-08 10:25:00 64.7 10.8 8.5 64.7 64.7 1.7 5.6 2.7 50.0 171.5 0.00 0.6620000 57.0
2021-04-08 10:30:00 66.6 10.9 10.1 66.6 66.6 2.4 2.8 1.9 125.0 107.1 0.00 0.6750000 57.2
2021-04-08 10:35:00 67.3 11.5 11.9 67.3 67.3 2.4 3.0 1.9 199.2 104.1 0.00 0.6870000 57.4
2021-04-08 10:40:00 67.3 10.6 10.0 67.3 67.3 0.8 3.8 2.2 210.1 206.5 0.00 0.7050000 57.6
2021-04-08 10:45:00 68.9 10.3 10.7 68.9 68.9 1.7 3.5 1.9 121.1 181.0 0.00 0.6920000 57.8
2021-04-08 10:50:00 69.0 10.8 11.8 69.0 69.0 3.7 4.2 2.3 181.1 97.2 0.00 0.6900000 58.1
2021-04-08 10:55:00 68.9 11.2 12.5 68.9 68.9 3.0 4.2 2.6 50.0 164.7 0.00 0.7330000 58.3
2021-04-08 11:00:00 70.2 11.3 13.7 70.2 70.2 1.3 4.0 2.4 135.1 103.6 0.00 0.7430000 58.6
2021-04-08 11:05:00 72.3 10.4 13.6 72.3 72.3 0.8 3.1 0.9 55.3 137.0 0.00 0.7360000 58.8
2021-04-08 11:10:00 70.1 10.0 10.9 70.1 70.1 5.6 8.1 4.4 54.2 150.3 0.00 0.7600000 59.1
2021-04-08 11:15:00 70.1 10.4 11.8 70.1 70.1 2.1 6.3 3.2 23.0 201.6 0.00 0.7720000 59.4
2021-04-08 11:20:00 71.3 9.8 11.4 71.3 71.3 4.9 4.9 1.9 200.8 222.0 0.00 0.7840000 59.6
2021-04-08 11:25:00 71.6 12.2 16.6 71.6 71.6 2.6 4.9 2.4 272.3 189.4 0.00 0.7890000 59.9
2021-04-08 11:30:00 72.2 9.8 12.1 72.2 72.2 4.4 4.9 3.5 209.4 189.2 0.00 0.7970000 60.2
2021-04-08 11:35:00 72.2 10.6 13.8 72.2 72.2 4.9 5.6 3.6 128.1 184.6 0.00 0.8050000 60.5
2021-04-08 11:40:00 71.6 10.2 12.6 71.6 71.6 3.0 7.1 5.0 245.8 209.6 0.00 0.8080000 60.7
2021-04-08 11:45:00 72.6 10.9 14.7 72.6 72.6 6.0 11.0 4.5 318.0 268.5 0.00 0.8180000 61.0
2021-04-08 11:50:00 74.4 9.6 13.2 74.4 74.4 3.3 11.7 4.2 240.1 293.8 0.00 0.8230000 61.3
2021-04-08 11:55:00 74.0 9.6 13.1 74.0 74.0 3.8 8.0 4.9 283.3 289.7 0.00 0.8300000 61.6
2021-04-08 12:00:00 74.0 10.5 15.0 74.0 74.0 3.3 8.8 3.9 271.7 248.1 0.00 0.8380000 61.9
2021-04-08 12:05:00 74.6 9.8 14.0 74.6 74.6 9.0 13.3 6.3 286.8 263.1 0.00 0.8420000 62.2
2021-04-08 12:10:00 74.6 10.3 15.1 74.6 74.6 5.6 10.3 5.4 278.6 254.0 0.00 0.8470000 62.5
2021-04-08 12:15:00 73.9 9.8 13.4 73.9 73.9 7.6 12.6 7.6 235.2 254.1 0.00 0.8550000 62.8
2021-04-08 12:20:00 75.1 10.0 14.7 75.1 75.1 5.1 13.1 6.3 256.2 265.8 0.00 0.8630000 63.1
2021-04-08 12:25:00 75.0 9.7 14.0 75.0 75.0 6.5 11.0 6.9 229.2 240.6 0.00 0.8600000 63.4
2021-04-08 12:30:00 76.1 9.5 14.5 76.1 76.1 9.0 12.2 7.2 231.1 272.6 0.00 0.8640000 63.7
2021-04-08 12:35:00 75.9 9.9 15.3 75.9 75.9 9.2 14.0 6.1 308.8 275.8 0.00 0.8630000 64.0
2021-04-08 12:40:00 75.5 10.4 16.0 75.5 75.5 4.4 12.1 7.7 224.9 249.2 0.00 0.8680000 64.3
2021-04-08 12:45:00 74.6 10.2 14.9 74.6 74.6 9.7 11.5 8.3 234.1 231.4 0.00 0.8670000 64.6
2021-04-08 12:50:00 75.1 9.9 14.6 75.1 75.1 4.2 11.7 6.3 188.3 226.0 0.00 0.8680000 64.8
2021-04-08 12:55:00 75.6 10.0 15.2 75.6 75.6 9.0 13.9 7.3 234.9 234.3 0.00 0.8700000 65.1
2021-04-08 13:00:00 76.0 10.2 16.0 76.0 76.0 4.4 9.4 6.6 312.4 301.3 0.00 0.8770000 65.4
2021-04-08 13:05:00 76.2 9.7 14.9 76.2 76.2 7.2 10.5 5.1 231.2 251.9 0.00 0.8800000 65.7
2021-04-08 13:10:00 77.1 9.7 15.7 77.1 77.1 7.6 11.2 6.7 224.0 257.5 0.00 0.8690000 65.9
2021-04-08 13:15:00 77.5 10.0 16.7 77.5 77.5 2.8 12.1 4.9 281.4 260.6 0.00 0.9110000 66.2
2021-04-08 13:20:00 77.8 9.6 15.9 77.8 77.8 4.0 9.0 4.6 337.1 291.1 0.00 0.8150000 66.4
2021-04-08 13:25:00 77.3 10.1 16.7 77.3 77.3 6.5 13.0 6.7 334.9 250.2 0.00 0.8820000 66.7
2021-04-08 13:30:00 78.1 9.5 15.9 78.1 78.1 7.8 13.1 6.9 21.9 303.0 0.00 0.8210000 67.0
2021-04-08 13:35:00 77.9 9.4 15.6 77.9 77.9 6.3 13.9 7.4 6.8 299.2 0.00 0.8800000 67.2
2021-04-08 13:40:00 78.3 9.3 15.6 78.3 78.3 8.3 12.6 6.3 266.3 302.4 0.00 0.8460000 67.5
2021-04-08 13:45:00 79.0 8.6 14.2 79.0 79.0 9.6 14.2 6.6 220.5 242.6 0.00 0.5650000 67.7
2021-04-08 13:50:00 78.8 8.8 14.7 78.8 78.8 10.5 15.5 6.8 274.2 274.2 0.00 0.9160000 68.0
2021-04-08 13:55:00 79.0 9.5 16.7 79.0 79.0 6.0 9.0 4.8 297.1 262.4 0.00 0.6420000 68.2
2021-04-08 14:00:00 79.2 9.1 15.8 79.2 79.2 7.6 10.3 6.8 224.6 258.1 0.00 0.8030000 68.4
2021-04-08 14:05:00 78.5 9.7 16.6 78.5 78.5 4.0 13.9 7.0 201.5 266.6 0.00 0.8470000 68.6
2021-04-08 14:10:00 78.8 9.3 16.0 78.8 78.8 6.2 9.7 6.6 28.4 249.0 0.00 0.6410000 68.9
2021-04-08 14:15:00 78.2 9.6 16.2 78.2 78.2 4.9 10.5 6.3 326.6 298.6 0.00 0.4970000 69.1
2021-04-08 14:20:00 78.1 9.5 15.9 78.1 78.1 6.0 12.1 7.7 343.3 261.9 0.00 0.4790000 69.3
2021-04-08 14:25:00 77.9 9.8 16.4 77.9 77.9 8.1 14.9 7.4 20.9 271.6 0.00 0.5270000 69.5
2021-04-08 14:30:00 78.3 9.6 16.3 78.3 78.3 9.2 12.6 8.1 281.8 293.4 0.00 0.4860000 69.7
2021-04-08 14:35:00 77.6 9.8 16.2 77.6 77.6 8.1 16.2 8.9 231.3 267.2 0.00 0.4520000 69.9
2021-04-08 14:40:00 78.0 9.4 15.5 78.0 78.0 8.7 16.2 8.8 239.1 270.6 0.00 0.5980000 70.1
2021-04-08 14:45:00 78.2 9.7 16.3 78.2 78.2 4.9 13.5 8.5 297.3 254.4 0.00 0.5730000 70.3
2021-04-08 14:50:00 78.7 9.3 15.9 78.7 78.7 7.2 10.6 7.3 248.1 257.8 0.00 0.6340000 70.4
2021-04-08 14:55:00 79.6 9.2 16.3 79.6 79.6 7.4 13.9 7.5 235.8 248.0 0.00 0.7710000 70.6
2021-04-08 15:00:00 80.1 9.5 17.3 80.1 80.1 6.0 16.0 7.1 330.7 252.0 0.00 0.7090000 70.7
2021-04-08 15:05:00 79.3 9.5 16.8 79.3 79.3 7.4 11.2 7.1 330.7 290.1 0.00 0.4490000 70.8
2021-04-08 15:10:00 79.9 9.0 15.9 79.9 79.9 10.5 13.0 7.3 284.2 302.7 0.00 0.6700000 70.9
2021-04-08 15:15:00 79.0 9.5 16.5 79.0 79.0 4.6 13.5 6.6 225.7 266.0 0.00 0.7490000 71.0
2021-04-08 15:20:00 80.1 9.6 17.7 80.1 80.1 6.0 14.2 8.2 292.5 250.9 0.00 0.7890000 71.1
2021-04-08 15:25:00 80.4 9.3 17.1 80.4 80.4 7.2 11.0 7.0 260.3 277.3 0.00 0.3580000 71.2
2021-04-08 15:30:00 80.6 9.4 17.6 80.6 80.6 8.7 15.6 7.8 340.0 283.7 0.00 0.7470000 71.3
2021-04-08 15:35:00 79.9 9.5 17.2 79.9 79.9 6.9 15.5 7.6 265.4 319.1 0.00 0.7700000 71.4
2021-04-08 15:40:00 79.8 9.5 17.3 79.8 79.8 5.8 14.6 8.6 37.4 284.7 0.00 0.7750000 71.5
2021-04-08 15:45:00 80.5 9.1 16.7 80.5 80.5 5.1 9.0 5.7 196.1 242.6 0.00 0.7670000 71.6
2021-04-08 15:50:00 80.0 9.5 17.3 80.0 80.0 5.6 13.9 6.9 96.6 247.9 0.00 0.1490000 71.8
2021-04-08 15:55:00 79.0 9.7 17.1 79.0 79.0 4.7 8.5 5.3 308.2 254.6 0.00 0.1530000 71.9
2021-04-08 16:00:00 78.0 9.9 16.8 78.0 78.0 7.2 10.1 5.9 279.5 289.5 0.00 0.6590000 72.0
2021-04-08 16:05:00 79.9 9.2 16.5 79.9 79.9 9.4 16.0 8.0 221.0 301.6 0.00 0.7330000 72.1
2021-04-08 16:10:00 79.0 9.8 17.4 79.0 79.0 11.5 11.7 7.2 254.6 305.2 0.00 0.5460000 72.2
2021-04-08 16:15:00 80.3 9.7 18.0 80.3 80.3 4.0 9.6 5.3 291.6 294.4 0.00 0.7130000 72.4
2021-04-08 16:20:00 80.6 8.2 14.5 80.6 80.6 9.0 14.6 7.3 251.9 297.8 0.00 0.4870000 72.4
2021-04-08 16:25:00 80.5 8.7 15.7 80.5 80.5 5.5 11.5 6.0 287.7 326.1 0.00 0.6890000 72.5
2021-04-08 16:30:00 81.7 7.1 11.9 81.7 81.7 15.8 15.8 7.9 269.0 253.4 0.00 0.5560000 72.6
2021-04-08 16:35:00 81.4 7.4 12.7 81.4 81.4 4.4 14.7 8.0 229.1 236.4 0.00 0.6860000 72.7
2021-04-08 16:40:00 81.2 7.6 13.0 81.2 81.2 9.7 13.7 7.6 242.2 252.2 0.00 0.6360000 72.7
2021-04-08 16:45:00 80.8 7.6 12.7 80.8 80.8 9.0 14.9 8.4 182.3 236.1 0.00 0.6070000 72.8
2021-04-08 16:50:00 81.2 7.5 12.9 81.2 81.2 9.9 14.4 8.3 295.8 249.8 0.00 0.5800000 72.8
2021-04-08 16:55:00 80.7 7.4 12.2 80.7 80.7 10.3 14.6 9.4 201.9 249.7 0.00 0.5270000 72.9
2021-04-08 17:00:00 81.1 7.5 12.8 81.1 81.1 11.2 14.0 8.1 269.7 243.6 0.00 0.5380000 73.0
2021-04-08 17:05:00 80.3 7.7 12.7 80.3 80.3 10.1 16.2 9.5 312.1 271.5 0.00 0.1830000 73.0
2021-04-08 17:10:00 79.5 7.9 12.8 79.5 79.5 9.7 17.1 9.9 280.7 286.4 0.00 0.4990000 73.1
2021-04-08 17:15:00 79.7 8.0 13.0 79.7 79.7 7.6 14.7 7.2 271.6 259.4 0.00 0.2780000 73.1
2021-04-08 17:20:00 79.3 8.3 13.8 79.3 79.3 8.7 12.4 8.3 306.2 281.2 0.00 0.2010000 73.2
2021-04-08 17:25:00 79.3 8.6 14.4 79.3 79.3 2.8 12.6 6.5 253.8 258.0 0.00 0.1730000 73.2
2021-04-08 17:30:00 79.6 8.3 13.8 79.6 79.6 5.3 15.1 8.3 272.4 300.2 0.00 0.1700000 73.3
2021-04-08 17:35:00 79.3 8.1 13.2 79.3 79.3 7.4 10.3 6.8 318.5 270.3 0.00 0.1840000 73.3
2021-04-08 17:40:00 79.7 7.8 12.6 79.7 79.7 10.1 18.5 9.1 232.9 266.7 0.00 0.1780000 73.3
2021-04-08 17:45:00 79.2 8.1 13.1 79.2 79.2 8.5 15.6 7.5 263.2 282.2 0.00 0.1870000 73.3
2021-04-08 17:50:00 78.8 8.2 13.1 78.8 78.8 6.9 11.7 7.8 240.0 263.5 0.00 0.1720000 73.3
2021-04-08 17:55:00 78.5 8.1 12.5 78.5 78.5 8.8 12.8 8.5 204.3 267.5 0.00 0.1710000 73.3
2021-04-08 18:00:00 78.6 8.2 12.8 78.6 78.6 3.1 10.5 6.1 236.7 256.1 0.00 0.1750000 73.3
2021-04-08 18:05:00 78.8 7.7 11.7 78.8 78.8 10.5 13.5 7.7 6.3 284.0 0.00 0.1580000 73.2
2021-04-08 18:10:00 78.2 7.7 11.1 78.2 78.2 6.7 14.6 7.9 298.4 268.8 0.00 0.1570000 73.2
2021-04-08 18:15:00 78.2 8.1 12.4 78.2 78.2 8.8 12.2 8.1 290.0 251.7 0.00 0.1470000 73.2
2021-04-08 18:20:00 78.4 8.1 12.6 78.4 78.4 5.5 12.2 7.0 38.9 292.7 0.00 0.1450000 73.1
2021-04-08 18:25:00 77.8 8.2 12.4 77.8 77.8 7.1 14.2 7.4 279.9 311.3 0.00 0.2030000 73.1
2021-04-08 18:30:00 77.8 8.2 12.4 77.8 77.8 4.0 11.0 6.5 288.6 288.4 0.00 0.1080000 73.0
2021-04-08 18:35:00 77.3 8.2 11.9 77.3 77.3 10.5 12.1 6.6 247.9 294.6 0.00 0.0870000 72.9
2021-04-08 18:40:00 77.0 8.1 11.5 77.0 77.0 5.1 11.3 6.5 218.6 277.4 0.00 0.0770000 72.9
2021-04-08 18:45:00 76.5 8.6 12.4 76.5 76.5 5.5 9.9 5.0 284.8 333.8 0.00 0.0810000 72.8
2021-04-08 18:50:00 76.4 8.7 12.5 76.4 76.4 4.4 12.8 6.4 314.6 319.7 0.00 0.0660000 72.7
2021-04-08 18:55:00 76.0 8.9 12.6 76.0 76.0 3.3 12.6 6.5 290.0 310.9 0.00 0.0600000 72.7
2021-04-08 19:00:00 75.8 8.9 12.6 75.8 75.8 3.8 10.3 5.5 190.5 274.8 0.00 0.0560000 72.6
2021-04-08 19:05:00 75.7 8.8 12.2 75.7 75.7 11.2 11.2 5.8 280.0 294.0 0.00 0.0390000 72.6
2021-04-08 19:10:00 75.7 9.0 12.7 75.7 75.7 3.3 10.1 5.8 80.4 299.9 0.00 0.0320000 72.5
2021-04-08 19:15:00 75.2 8.8 11.9 75.2 75.2 8.3 11.7 7.4 267.6 281.9 0.00 0.0230000 72.4
2021-04-08 19:20:00 75.2 9.0 12.4 75.2 75.2 5.3 9.0 5.2 279.7 298.6 0.00 0.0160000 72.3
2021-04-08 19:25:00 74.7 9.0 12.0 74.7 74.7 5.1 8.3 5.4 335.1 318.4 0.00 0.0120000 72.3
2021-04-08 19:30:00 74.5 9.5 13.2 74.5 74.5 3.7 8.7 4.8 323.1 328.9 0.00 0.0070000 72.2
2021-04-08 19:35:00 74.3 9.6 13.2 74.3 74.3 4.6 8.1 4.7 225.5 296.1 0.00 0.0030000 72.1
2021-04-08 19:40:00 73.9 9.4 12.4 73.9 73.9 6.9 6.9 4.1 274.4 300.6 0.00 0.0010000 72.0
2021-04-08 19:45:00 73.6 9.5 12.5 73.6 73.6 7.1 7.1 4.2 241.2 311.4 0.00 0.0010000 71.9
2021-04-08 19:50:00 73.4 9.5 12.2 73.4 73.4 4.7 9.6 4.1 337.2 311.7 0.00 0.0000000 71.8
2021-04-08 19:55:00 73.1 9.5 12.2 73.1 73.1 2.6 6.3 3.8 302.6 322.3 0.00 0.0000000 71.7
2021-04-08 20:00:00 72.7 9.9 12.8 72.7 72.7 3.8 8.1 4.4 283.3 302.2 0.00 0.0000000 71.6
2021-04-08 20:05:00 72.6 9.9 12.7 72.6 72.6 4.0 10.5 5.5 15.9 316.6 0.00 0.0000000 71.5
2021-04-08 20:10:00 72.6 9.9 12.7 72.6 72.6 6.0 11.0 5.2 325.8 323.8 0.00 0.0000000 71.5
2021-04-08 20:15:00 72.6 10.2 13.2 72.6 72.6 4.9 9.2 5.6 297.8 306.7 0.00 0.0000000 71.4
2021-04-08 20:20:00 72.4 10.3 13.4 72.4 72.4 2.2 9.6 5.5 174.2 303.9 0.00 0.0000000 71.3
2021-04-08 20:25:00 72.0 10.3 13.0 72.0 72.0 4.0 11.2 4.9 61.2 317.5 0.00 0.0000000 71.2
2021-04-08 20:30:00 71.3 10.7 13.3 71.3 71.3 3.5 8.5 4.9 313.2 304.3 0.00 0.0000000 71.1
2021-04-08 20:35:00 70.9 10.8 13.4 70.9 70.9 3.5 8.8 4.9 339.7 310.9 0.00 0.0000000 71.0
2021-04-08 20:40:00 70.9 11.0 13.6 70.9 70.9 3.3 9.2 4.9 322.2 320.3 0.00 0.0000000 70.9
2021-04-08 20:45:00 70.3 11.1 13.4 70.3 70.3 1.9 8.7 4.2 263.8 306.1 0.00 0.0000000 70.8
2021-04-08 20:50:00 70.0 11.1 13.3 70.0 70.0 4.9 6.2 4.1 254.5 290.3 0.00 0.0000000 70.7
2021-04-08 20:55:00 69.7 11.4 13.6 69.7 69.7 2.8 8.0 4.1 300.4 288.0 0.00 0.0000000 70.6
2021-04-08 21:00:00 69.1 11.7 13.7 69.1 69.1 5.3 7.1 4.8 274.7 281.2 0.00 0.0000000 70.4
2021-04-08 21:05:00 68.8 11.7 13.6 68.8 68.8 3.8 8.1 4.6 14.1 284.7 0.00 0.0000000 70.4
2021-04-08 21:10:00 68.3 11.9 13.4 68.3 68.3 3.8 6.5 3.9 322.1 290.1 0.00 0.0000000 70.3
2021-04-08 21:15:00 67.8 12.2 13.6 67.8 67.8 4.0 5.6 3.4 319.8 290.0 0.00 0.0000000 70.2
2021-04-08 21:20:00 67.3 12.5 13.9 67.3 67.3 3.1 7.1 4.0 9.5 285.1 0.00 0.0000000 70.1
2021-04-08 21:25:00 66.9 12.6 13.7 66.9 66.9 4.4 5.8 3.8 308.7 288.7 0.00 0.0000000 70.0
2021-04-08 21:30:00 66.6 12.8 13.9 66.6 66.6 3.8 6.3 4.3 9.1 289.6 0.00 0.0000000 69.8
2021-04-08 21:35:00 66.5 13.0 14.2 66.5 66.5 2.2 5.6 3.5 298.1 281.0 0.00 0.0000000 69.8
2021-04-08 21:40:00 66.5 13.1 14.3 66.5 66.5 5.1 6.0 4.3 311.3 284.2 0.00 0.0000000 69.6
2021-04-08 21:45:00 66.7 13.2 14.7 66.7 66.7 2.2 6.5 3.5 305.8 301.6 0.00 0.0000000 69.5
2021-04-08 21:50:00 66.4 13.4 14.7 66.4 66.4 3.3 5.5 3.0 312.9 294.5 0.00 0.0000000 69.4
2021-04-08 21:55:00 66.2 13.6 14.8 66.2 66.2 3.8 5.1 3.5 297.0 292.1 0.00 0.0000000 69.3
2021-04-08 22:00:00 65.5 13.7 14.4 65.5 65.5 3.1 6.3 3.8 290.5 279.0 0.00 0.0000000 69.2
2021-04-08 22:05:00 65.1 13.9 14.5 65.1 65.1 1.9 6.0 3.5 273.3 272.7 0.00 0.0000000 69.1
2021-04-08 22:10:00 64.3 14.2 14.3 64.3 64.3 3.0 5.1 3.3 68.0 264.1 0.00 0.0000000 69.0
2021-04-08 22:15:00 64.4 14.3 14.6 64.4 64.4 4.0 5.1 3.2 301.4 276.4 0.00 0.0000000 68.9
2021-04-08 22:20:00 64.2 14.2 14.2 64.2 64.2 4.7 6.0 3.6 306.8 275.9 0.00 0.0000000 68.8
2021-04-08 22:25:00 64.3 14.1 14.2 64.3 64.3 3.8 6.5 3.8 282.1 274.3 0.00 0.0000000 68.7
2021-04-08 22:30:00 64.0 14.3 14.3 64.0 64.0 2.1 4.7 3.2 324.6 292.1 0.00 0.0000000 68.6
2021-04-08 22:35:00 63.6 14.6 14.4 63.6 63.6 2.8 4.7 2.7 279.3 289.5 0.00 0.0000000 68.5
2021-04-08 22:40:00 63.6 14.6 14.5 63.6 63.6 3.8 5.5 3.4 275.6 292.8 0.00 0.0000000 68.4
2021-04-08 22:45:00 63.6 14.6 14.5 63.6 63.6 2.1 5.6 2.4 343.5 316.2 0.00 0.0000000 68.3
2021-04-08 22:50:00 63.8 14.6 14.6 63.8 63.8 2.6 5.6 3.1 260.1 278.3 0.00 0.0000000 68.2
2021-04-08 22:55:00 63.4 14.9 14.7 63.4 63.4 4.9 6.5 3.7 265.3 250.4 0.00 0.0000000 68.1
2021-04-08 23:00:00 63.4 15.1 15.0 63.4 63.4 2.8 6.9 3.9 269.9 267.2 0.00 0.0000000 68.0
2021-04-08 23:05:00 63.3 15.5 15.6 63.3 63.3 8.1 8.1 3.9 235.9 257.4 0.00 0.0000000 67.9
2021-04-08 23:10:00 66.0 16.0 18.5 66.0 66.0 8.3 14.6 6.4 279.5 266.2 0.00 0.0000000 67.7
2021-04-08 23:15:00 68.5 15.1 19.2 68.5 68.5 7.6 12.1 6.8 30.1 313.8 0.00 0.0000000 67.7
2021-04-08 23:20:00 70.1 14.3 19.1 70.1 70.1 5.6 12.4 6.7 57.1 330.2 0.00 0.0000000 67.6
2021-04-08 23:25:00 69.9 14.5 19.3 69.9 69.9 7.6 7.6 5.2 343.3 313.5 0.00 0.0000000 67.5
2021-04-08 23:30:00 69.6 14.8 19.6 69.6 69.6 5.3 14.6 7.2 286.5 285.3 0.00 0.0000000 67.4
2021-04-08 23:35:00 68.9 15.4 20.0 68.9 68.9 6.5 11.3 6.3 308.5 290.3 0.00 0.0000000 67.3
2021-04-08 23:40:00 68.4 15.9 20.3 68.4 68.4 1.9 8.3 4.4 95.6 314.4 0.00 0.0000000 67.2
2021-04-08 23:45:00 67.8 16.4 20.6 67.8 67.8 3.7 5.8 3.4 341.4 334.1 0.00 0.0000000 67.1
2021-04-08 23:50:00 67.9 16.6 20.9 67.9 67.9 3.7 7.8 4.9 0.0 327.5 0.00 0.0000000 67.1
2021-04-08 23:55:00 67.7 16.8 21.0 67.7 67.7 3.1 7.4 4.7 336.7 326.7 0.00 0.0000000 67.0
2021-04-09 00:00:00 67.4 17.2 21.3 67.4 67.4 5.3 8.0 5.0 263.5 284.7 0.00 0.0000000 66.9

Data is courtesy of the NM Climate Center. DO NOT USE IN LEGAL PROCEEDINGS.